sensor_id;sensor_type;location;lat;lon;timestamp;temperature;humidity
53208;DHT22;39093;52.788;6.940;2022-07-25T00:01:49;22.30;99.90
53208;DHT22;39093;52.788;6.940;2022-07-25T00:04:17;22.30;99.90
53208;DHT22;39093;52.788;6.940;2022-07-25T00:06:44;22.30;99.90
53208;DHT22;39093;52.788;6.940;2022-07-25T00:09:11;22.20;99.90
53208;DHT22;39093;52.788;6.940;2022-07-25T00:11:38;22.20;99.90
53208;DHT22;39093;52.788;6.940;2022-07-25T00:14:05;22.20;99.90
53208;DHT22;39093;52.788;6.940;2022-07-25T00:16:33;22.20;99.90
53208;DHT22;39093;52.788;6.940;2022-07-25T00:19:00;22.10;99.90
53208;DHT22;39093;52.788;6.940;2022-07-25T00:21:27;22.10;99.90
53208;DHT22;39093;52.788;6.940;2022-07-25T00:23:54;22.10;99.90
53208;DHT22;39093;52.788;6.940;2022-07-25T00:26:20;22.10;99.90
53208;DHT22;39093;52.788;6.940;2022-07-25T00:28:47;22.10;99.90
53208;DHT22;39093;52.788;6.940;2022-07-25T00:31:14;22.10;99.90
53208;DHT22;39093;52.788;6.940;2022-07-25T00:33:41;22.10;99.90
53208;DHT22;39093;52.788;6.940;2022-07-25T00:36:09;22.10;99.90
53208;DHT22;39093;52.788;6.940;2022-07-25T00:38:36;22.00;99.90
53208;DHT22;39093;52.788;6.940;2022-07-25T00:41:03;22.10;99.90
53208;DHT22;39093;52.788;6.940;2022-07-25T00:43:30;22.10;99.90
53208;DHT22;39093;52.788;6.940;2022-07-25T00:45:58;22.10;99.90
53208;DHT22;39093;52.788;6.940;2022-07-25T00:48:27;22.10;99.90
53208;DHT22;39093;52.788;6.940;2022-07-25T00:50:58;22.10;99.90
53208;DHT22;39093;52.788;6.940;2022-07-25T00:53:25;22.00;99.90
53208;DHT22;39093;52.788;6.940;2022-07-25T00:55:52;22.00;99.90
53208;DHT22;39093;52.788;6.940;2022-07-25T00:58:19;22.00;99.90
53208;DHT22;39093;52.788;6.940;2022-07-25T01:00:46;22.10;99.90
53208;DHT22;39093;52.788;6.940;2022-07-25T01:03:14;22.10;99.90
53208;DHT22;39093;52.788;6.940;2022-07-25T01:05:41;22.10;99.90
53208;DHT22;39093;52.788;6.940;2022-07-25T01:08:08;22.00;99.90
53208;DHT22;39093;52.788;6.940;2022-07-25T01:10:36;22.00;99.90
53208;DHT22;39093;52.788;6.940;2022-07-25T01:13:03;22.00;99.90
53208;DHT22;39093;52.788;6.940;2022-07-25T01:15:30;21.90;99.90
53208;DHT22;39093;52.788;6.940;2022-07-25T01:17:57;21.90;99.90
53208;DHT22;39093;52.788;6.940;2022-07-25T01:20:27;21.90;99.90
53208;DHT22;39093;52.788;6.940;2022-07-25T01:22:55;21.90;99.90
53208;DHT22;39093;52.788;6.940;2022-07-25T01:25:22;21.90;99.90
53208;DHT22;39093;52.788;6.940;2022-07-25T01:27:51;21.90;99.90
53208;DHT22;39093;52.788;6.940;2022-07-25T01:30:23;21.90;99.90
53208;DHT22;39093;52.788;6.940;2022-07-25T01:32:50;21.80;99.90
53208;DHT22;39093;52.788;6.940;2022-07-25T01:35:17;21.80;99.90
53208;DHT22;39093;52.788;6.940;2022-07-25T01:37:44;21.80;99.90
53208;DHT22;39093;52.788;6.940;2022-07-25T01:40:12;21.80;99.90
53208;DHT22;39093;52.788;6.940;2022-07-25T01:42:40;21.80;99.90
53208;DHT22;39093;52.788;6.940;2022-07-25T01:45:09;21.70;99.90
53208;DHT22;39093;52.788;6.940;2022-07-25T01:47:36;21.80;99.90
53208;DHT22;39093;52.788;6.940;2022-07-25T01:50:04;21.70;99.90
53208;DHT22;39093;52.788;6.940;2022-07-25T01:52:31;21.70;99.90
53208;DHT22;39093;52.788;6.940;2022-07-25T01:54:58;21.70;99.90
53208;DHT22;39093;52.788;6.940;2022-07-25T01:57:25;21.70;99.90
53208;DHT22;39093;52.788;6.940;2022-07-25T01:59:57;21.60;99.90
53208;DHT22;39093;52.788;6.940;2022-07-25T02:02:25;21.60;99.90
53208;DHT22;39093;52.788;6.940;2022-07-25T02:04:52;21.60;99.90
53208;DHT22;39093;52.788;6.940;2022-07-25T02:07:19;21.60;99.90
53208;DHT22;39093;52.788;6.940;2022-07-25T02:09:46;21.60;99.90
53208;DHT22;39093;52.788;6.940;2022-07-25T02:12:17;21.60;99.90
53208;DHT22;39093;52.788;6.940;2022-07-25T02:14:44;21.60;99.90
53208;DHT22;39093;52.788;6.940;2022-07-25T02:17:11;21.60;99.90
53208;DHT22;39093;52.788;6.940;2022-07-25T02:19:38;21.60;99.90
53208;DHT22;39093;52.788;6.940;2022-07-25T02:22:05;21.50;99.90
53208;DHT22;39093;52.788;6.940;2022-07-25T02:24:32;21.50;99.90
53208;DHT22;39093;52.788;6.940;2022-07-25T02:26:59;21.50;99.90
53208;DHT22;39093;52.788;6.940;2022-07-25T02:29:26;21.50;99.90
53208;DHT22;39093;52.788;6.940;2022-07-25T02:31:53;21.50;99.90
53208;DHT22;39093;52.788;6.940;2022-07-25T02:34:20;21.50;99.90
53208;DHT22;39093;52.788;6.940;2022-07-25T02:36:47;21.40;99.90
53208;DHT22;39093;52.788;6.940;2022-07-25T02:39:13;21.50;99.90
53208;DHT22;39093;52.788;6.940;2022-07-25T02:41:41;21.50;99.90
53208;DHT22;39093;52.788;6.940;2022-07-25T02:44:08;21.40;99.90
53208;DHT22;39093;52.788;6.940;2022-07-25T02:46:36;21.40;99.90
53208;DHT22;39093;52.788;6.940;2022-07-25T02:49:03;21.40;99.90
53208;DHT22;39093;52.788;6.940;2022-07-25T02:51:30;21.40;99.90
53208;DHT22;39093;52.788;6.940;2022-07-25T02:53:57;21.40;99.90
53208;DHT22;39093;52.788;6.940;2022-07-25T02:56:25;21.40;99.90
53208;DHT22;39093;52.788;6.940;2022-07-25T02:58:56;21.40;99.90
53208;DHT22;39093;52.788;6.940;2022-07-25T03:01:23;21.30;99.90
53208;DHT22;39093;52.788;6.940;2022-07-25T03:03:50;21.30;99.90
53208;DHT22;39093;52.788;6.940;2022-07-25T03:06:17;21.30;99.90
53208;DHT22;39093;52.788;6.940;2022-07-25T03:08:44;21.30;99.90
53208;DHT22;39093;52.788;6.940;2022-07-25T03:11:12;21.30;99.90
53208;DHT22;39093;52.788;6.940;2022-07-25T03:13:39;21.20;99.90
53208;DHT22;39093;52.788;6.940;2022-07-25T03:16:06;21.20;99.90
53208;DHT22;39093;52.788;6.940;2022-07-25T03:18:33;21.20;99.90
53208;DHT22;39093;52.788;6.940;2022-07-25T03:21:00;21.20;99.90
53208;DHT22;39093;52.788;6.940;2022-07-25T03:23:28;21.20;99.90
53208;DHT22;39093;52.788;6.940;2022-07-25T03:25:56;21.10;99.90
53208;DHT22;39093;52.788;6.940;2022-07-25T03:28:23;21.10;99.90
53208;DHT22;39093;52.788;6.940;2022-07-25T03:30:51;21.10;99.90
53208;DHT22;39093;52.788;6.940;2022-07-25T03:33:18;21.10;99.90
53208;DHT22;39093;52.788;6.940;2022-07-25T03:35:45;21.10;99.90
53208;DHT22;39093;52.788;6.940;2022-07-25T03:38:12;21.10;99.90
53208;DHT22;39093;52.788;6.940;2022-07-25T03:40:39;21.00;99.90
53208;DHT22;39093;52.788;6.940;2022-07-25T03:43:06;21.00;99.90
53208;DHT22;39093;52.788;6.940;2022-07-25T03:45:33;21.00;99.90
53208;DHT22;39093;52.788;6.940;2022-07-25T03:48:00;21.00;99.90
53208;DHT22;39093;52.788;6.940;2022-07-25T03:50:27;20.90;99.90
53208;DHT22;39093;52.788;6.940;2022-07-25T03:52:54;20.90;99.90
53208;DHT22;39093;52.788;6.940;2022-07-25T03:55:21;20.90;99.90
53208;DHT22;39093;52.788;6.940;2022-07-25T03:57:49;20.90;99.90
53208;DHT22;39093;52.788;6.940;2022-07-25T04:00:16;20.90;99.90
53208;DHT22;39093;52.788;6.940;2022-07-25T04:02:43;20.90;99.90
53208;DHT22;39093;52.788;6.940;2022-07-25T04:05:10;20.90;99.90
53208;DHT22;39093;52.788;6.940;2022-07-25T04:07:37;20.80;99.90
53208;DHT22;39093;52.788;6.940;2022-07-25T04:10:06;20.90;99.90
53208;DHT22;39093;52.788;6.940;2022-07-25T04:12:33;20.80;99.90
53208;DHT22;39093;52.788;6.940;2022-07-25T04:15:00;20.80;99.90
53208;DHT22;39093;52.788;6.940;2022-07-25T04:17:27;20.80;99.90
53208;DHT22;39093;52.788;6.940;2022-07-25T04:19:54;20.80;99.90
53208;DHT22;39093;52.788;6.940;2022-07-25T04:22:22;20.80;99.90
53208;DHT22;39093;52.788;6.940;2022-07-25T04:24:49;20.80;99.90
53208;DHT22;39093;52.788;6.940;2022-07-25T04:27:15;20.80;99.90
53208;DHT22;39093;52.788;6.940;2022-07-25T04:29:42;20.80;99.90
53208;DHT22;39093;52.788;6.940;2022-07-25T04:32:09;20.80;99.90
53208;DHT22;39093;52.788;6.940;2022-07-25T04:34:36;20.80;99.90
53208;DHT22;39093;52.788;6.940;2022-07-25T04:37:03;20.80;99.90
53208;DHT22;39093;52.788;6.940;2022-07-25T04:39:30;20.80;99.90
53208;DHT22;39093;52.788;6.940;2022-07-25T04:41:57;20.80;99.90
53208;DHT22;39093;52.788;6.940;2022-07-25T04:44:24;20.80;99.90
53208;DHT22;39093;52.788;6.940;2022-07-25T04:46:51;20.70;99.90
53208;DHT22;39093;52.788;6.940;2022-07-25T04:49:18;20.80;99.90
53208;DHT22;39093;52.788;6.940;2022-07-25T04:51:45;20.80;99.90
53208;DHT22;39093;52.788;6.940;2022-07-25T04:54:12;20.80;99.90
53208;DHT22;39093;52.788;6.940;2022-07-25T04:56:39;20.90;99.90
53208;DHT22;39093;52.788;6.940;2022-07-25T04:59:06;20.90;99.90
53208;DHT22;39093;52.788;6.940;2022-07-25T05:01:33;20.90;99.90
53208;DHT22;39093;52.788;6.940;2022-07-25T05:04:01;21.00;99.90
53208;DHT22;39093;52.788;6.940;2022-07-25T05:06:28;21.00;99.90
53208;DHT22;39093;52.788;6.940;2022-07-25T05:08:54;21.00;99.90
53208;DHT22;39093;52.788;6.940;2022-07-25T05:11:21;21.10;99.90
53208;DHT22;39093;52.788;6.940;2022-07-25T05:13:48;21.00;99.90
53208;DHT22;39093;52.788;6.940;2022-07-25T05:16:15;21.10;99.90
53208;DHT22;39093;52.788;6.940;2022-07-25T05:18:42;21.10;99.90
53208;DHT22;39093;52.788;6.940;2022-07-25T05:21:12;21.10;99.90
53208;DHT22;39093;52.788;6.940;2022-07-25T05:23:39;21.10;99.90
53208;DHT22;39093;52.788;6.940;2022-07-25T05:26:07;21.10;99.90
53208;DHT22;39093;52.788;6.940;2022-07-25T05:28:34;21.10;99.90
53208;DHT22;39093;52.788;6.940;2022-07-25T05:31:00;21.20;99.90
53208;DHT22;39093;52.788;6.940;2022-07-25T05:33:28;21.20;99.90
53208;DHT22;39093;52.788;6.940;2022-07-25T05:35:54;21.20;99.90
53208;DHT22;39093;52.788;6.940;2022-07-25T05:38:21;21.20;99.90
53208;DHT22;39093;52.788;6.940;2022-07-25T05:40:48;21.20;99.90
53208;DHT22;39093;52.788;6.940;2022-07-25T05:43:17;21.30;99.90
53208;DHT22;39093;52.788;6.940;2022-07-25T05:45:45;21.30;99.90
53208;DHT22;39093;52.788;6.940;2022-07-25T05:48:14;21.30;99.90
53208;DHT22;39093;52.788;6.940;2022-07-25T05:50:41;21.40;99.90
53208;DHT22;39093;52.788;6.940;2022-07-25T05:53:08;21.50;99.90
53208;DHT22;39093;52.788;6.940;2022-07-25T05:55:35;21.50;99.90
53208;DHT22;39093;52.788;6.940;2022-07-25T05:58:06;21.60;99.90
53208;DHT22;39093;52.788;6.940;2022-07-25T06:00:35;21.70;99.90
53208;DHT22;39093;52.788;6.940;2022-07-25T06:03:02;21.80;99.90
53208;DHT22;39093;52.788;6.940;2022-07-25T06:05:30;21.90;99.90
53208;DHT22;39093;52.788;6.940;2022-07-25T06:07:57;21.90;99.90
53208;DHT22;39093;52.788;6.940;2022-07-25T06:10:24;21.90;99.90
53208;DHT22;39093;52.788;6.940;2022-07-25T06:12:51;22.00;99.90
53208;DHT22;39093;52.788;6.940;2022-07-25T06:15:18;22.20;99.90
53208;DHT22;39093;52.788;6.940;2022-07-25T06:17:48;22.20;99.90
53208;DHT22;39093;52.788;6.940;2022-07-25T06:20:15;22.40;99.90
53208;DHT22;39093;52.788;6.940;2022-07-25T06:22:42;22.50;99.90
53208;DHT22;39093;52.788;6.940;2022-07-25T06:25:09;22.50;99.90
53208;DHT22;39093;52.788;6.940;2022-07-25T06:27:37;22.60;99.90
53208;DHT22;39093;52.788;6.940;2022-07-25T06:30:06;22.60;99.90
53208;DHT22;39093;52.788;6.940;2022-07-25T06:32:45;22.70;99.90
53208;DHT22;39093;52.788;6.940;2022-07-25T06:35:12;22.80;99.90
53208;DHT22;39093;52.788;6.940;2022-07-25T06:37:39;22.90;99.90
53208;DHT22;39093;52.788;6.940;2022-07-25T06:40:06;23.20;99.90
53208;DHT22;39093;52.788;6.940;2022-07-25T06:42:38;23.20;99.90
53208;DHT22;39093;52.788;6.940;2022-07-25T06:45:07;23.30;99.90
53208;DHT22;39093;52.788;6.940;2022-07-25T06:47:38;23.30;99.90
53208;DHT22;39093;52.788;6.940;2022-07-25T06:50:06;23.30;99.90
53208;DHT22;39093;52.788;6.940;2022-07-25T06:52:37;23.40;99.90
53208;DHT22;39093;52.788;6.940;2022-07-25T06:55:05;23.50;99.90
53208;DHT22;39093;52.788;6.940;2022-07-25T06:57:32;23.50;99.90
53208;DHT22;39093;52.788;6.940;2022-07-25T06:59:59;23.60;99.90
53208;DHT22;39093;52.788;6.940;2022-07-25T07:02:25;23.90;99.90
53208;DHT22;39093;52.788;6.940;2022-07-25T07:04:52;24.10;99.90
53208;DHT22;39093;52.788;6.940;2022-07-25T07:07:19;24.30;99.90
53208;DHT22;39093;52.788;6.940;2022-07-25T07:09:46;24.50;99.90
53208;DHT22;39093;52.788;6.940;2022-07-25T07:12:13;24.90;99.20
53208;DHT22;39093;52.788;6.940;2022-07-25T07:14:40;25.20;98.80
53208;DHT22;39093;52.788;6.940;2022-07-25T07:17:09;25.30;98.70
53208;DHT22;39093;52.788;6.940;2022-07-25T07:19:36;25.50;98.50
53208;DHT22;39093;52.788;6.940;2022-07-25T07:22:09;25.80;97.80
53208;DHT22;39093;52.788;6.940;2022-07-25T07:24:36;26.10;97.00
53208;DHT22;39093;52.788;6.940;2022-07-25T07:27:09;26.30;96.00
53208;DHT22;39093;52.788;6.940;2022-07-25T07:29:36;26.40;96.30
53208;DHT22;39093;52.788;6.940;2022-07-25T07:32:04;26.50;96.10
53208;DHT22;39093;52.788;6.940;2022-07-25T07:34:32;26.60;96.10
53208;DHT22;39093;52.788;6.940;2022-07-25T07:36:59;26.80;95.80
53208;DHT22;39093;52.788;6.940;2022-07-25T07:39:26;27.00;94.30
53208;DHT22;39093;52.788;6.940;2022-07-25T07:41:53;27.20;94.40
53208;DHT22;39093;52.788;6.940;2022-07-25T07:44:20;27.30;94.20
53208;DHT22;39093;52.788;6.940;2022-07-25T07:46:46;27.30;94.30
53208;DHT22;39093;52.788;6.940;2022-07-25T07:49:14;27.40;94.70
53208;DHT22;39093;52.788;6.940;2022-07-25T07:51:41;27.60;95.80
53208;DHT22;39093;52.788;6.940;2022-07-25T07:54:08;27.60;95.00
53208;DHT22;39093;52.788;6.940;2022-07-25T07:56:54;27.70;94.70
53208;DHT22;39093;52.788;6.940;2022-07-25T07:59:20;27.70;94.60
53208;DHT22;39093;52.788;6.940;2022-07-25T08:01:47;27.70;95.00
53208;DHT22;39093;52.788;6.940;2022-07-25T08:04:14;27.60;95.50
53208;DHT22;39093;52.788;6.940;2022-07-25T08:06:43;27.70;95.00
53208;DHT22;39093;52.788;6.940;2022-07-25T08:09:10;27.80;94.70
53208;DHT22;39093;52.788;6.940;2022-07-25T08:11:37;27.80;94.60
53208;DHT22;39093;52.788;6.940;2022-07-25T08:14:04;27.90;94.40
53208;DHT22;39093;52.788;6.940;2022-07-25T08:16:33;27.90;94.20
53208;DHT22;39093;52.788;6.940;2022-07-25T08:19:00;27.90;94.80
53208;DHT22;39093;52.788;6.940;2022-07-25T08:21:27;28.00;94.90
53208;DHT22;39093;52.788;6.940;2022-07-25T08:23:54;28.00;94.90
53208;DHT22;39093;52.788;6.940;2022-07-25T08:26:21;27.90;93.90
53208;DHT22;39093;52.788;6.940;2022-07-25T08:28:48;27.70;93.90
53208;DHT22;39093;52.788;6.940;2022-07-25T08:31:35;27.50;94.50
53208;DHT22;39093;52.788;6.940;2022-07-25T08:34:02;27.40;95.60
53208;DHT22;39093;52.788;6.940;2022-07-25T08:36:30;27.40;95.30
53208;DHT22;39093;52.788;6.940;2022-07-25T08:39:00;27.30;95.60
53208;DHT22;39093;52.788;6.940;2022-07-25T08:41:27;27.20;95.10
53208;DHT22;39093;52.788;6.940;2022-07-25T08:43:55;27.00;94.70
53208;DHT22;39093;52.788;6.940;2022-07-25T08:46:22;26.80;94.60
53208;DHT22;39093;52.788;6.940;2022-07-25T08:48:50;26.70;95.00
53208;DHT22;39093;52.788;6.940;2022-07-25T08:51:18;26.50;94.70
53208;DHT22;39093;52.788;6.940;2022-07-25T08:53:45;26.40;95.00
53208;DHT22;39093;52.788;6.940;2022-07-25T08:56:14;26.30;95.60
53208;DHT22;39093;52.788;6.940;2022-07-25T08:58:47;26.20;95.80
53208;DHT22;39093;52.788;6.940;2022-07-25T09:01:15;26.20;96.50
53208;DHT22;39093;52.788;6.940;2022-07-25T09:03:42;26.30;96.20
53208;DHT22;39093;52.788;6.940;2022-07-25T09:06:20;26.30;96.10
53208;DHT22;39093;52.788;6.940;2022-07-25T09:08:52;26.30;96.20
53208;DHT22;39093;52.788;6.940;2022-07-25T09:11:31;26.20;96.00
53208;DHT22;39093;52.788;6.940;2022-07-25T09:14:03;26.10;96.20
53208;DHT22;39093;52.788;6.940;2022-07-25T09:16:38;25.90;96.10
53208;DHT22;39093;52.788;6.940;2022-07-25T09:19:11;25.90;95.80
53208;DHT22;39093;52.788;6.940;2022-07-25T09:21:40;25.80;94.80
53208;DHT22;39093;52.788;6.940;2022-07-25T09:24:17;25.70;94.90
53208;DHT22;39093;52.788;6.940;2022-07-25T09:26:47;25.60;94.40
53208;DHT22;39093;52.788;6.940;2022-07-25T09:29:23;25.50;94.60
53208;DHT22;39093;52.788;6.940;2022-07-25T09:31:51;25.50;94.50
53208;DHT22;39093;52.788;6.940;2022-07-25T09:36:56;25.30;94.70
53208;DHT22;39093;52.788;6.940;2022-07-25T09:39:47;25.20;94.40
53208;DHT22;39093;52.788;6.940;2022-07-25T09:42:22;25.20;94.50
53208;DHT22;39093;52.788;6.940;2022-07-25T09:45:16;25.10;94.90
53208;DHT22;39093;52.788;6.940;2022-07-25T09:47:53;25.00;95.40
53208;DHT22;39093;52.788;6.940;2022-07-25T09:50:22;25.10;94.90
53208;DHT22;39093;52.788;6.940;2022-07-25T09:52:51;25.20;95.50
53208;DHT22;39093;52.788;6.940;2022-07-25T09:55:19;25.30;96.20
53208;DHT22;39093;52.788;6.940;2022-07-25T09:57:47;25.40;96.40
53208;DHT22;39093;52.788;6.940;2022-07-25T10:00:21;25.40;96.00
53208;DHT22;39093;52.788;6.940;2022-07-25T10:03:00;25.50;95.10
53208;DHT22;39093;52.788;6.940;2022-07-25T10:08:17;25.50;94.70
53208;DHT22;39093;52.788;6.940;2022-07-25T10:10:45;25.50;94.70
53208;DHT22;39093;52.788;6.940;2022-07-25T10:13:26;25.50;95.10
53208;DHT22;39093;52.788;6.940;2022-07-25T10:15:53;25.60;95.10
53208;DHT22;39093;52.788;6.940;2022-07-25T10:18:23;25.80;95.90
53208;DHT22;39093;52.788;6.940;2022-07-25T10:20:55;26.00;95.90
53208;DHT22;39093;52.788;6.940;2022-07-25T10:24:05;26.10;95.10
53208;DHT22;39093;52.788;6.940;2022-07-25T10:26:35;26.10;95.00
53208;DHT22;39093;52.788;6.940;2022-07-25T10:29:10;25.90;95.10
53208;DHT22;39093;52.788;6.940;2022-07-25T10:31:42;25.80;95.60
53208;DHT22;39093;52.788;6.940;2022-07-25T10:34:29;25.60;96.20
53208;DHT22;39093;52.788;6.940;2022-07-25T10:37:17;25.50;96.90
53208;DHT22;39093;52.788;6.940;2022-07-25T10:39:47;25.30;96.00
53208;DHT22;39093;52.788;6.940;2022-07-25T10:42:16;25.20;95.50
53208;DHT22;39093;52.788;6.940;2022-07-25T10:45:03;25.10;96.00
53208;DHT22;39093;52.788;6.940;2022-07-25T10:47:35;25.10;95.70
53208;DHT22;39093;52.788;6.940;2022-07-25T10:50:09;25.10;96.30
53208;DHT22;39093;52.788;6.940;2022-07-25T10:52:58;25.20;95.70
53208;DHT22;39093;52.788;6.940;2022-07-25T10:55:27;25.20;95.10
53208;DHT22;39093;52.788;6.940;2022-07-25T10:58:01;25.30;95.40
53208;DHT22;39093;52.788;6.940;2022-07-25T11:00:45;25.60;96.50
53208;DHT22;39093;52.788;6.940;2022-07-25T11:03:12;26.00;96.70
53208;DHT22;39093;52.788;6.940;2022-07-25T11:05:45;26.20;95.20
53208;DHT22;39093;52.788;6.940;2022-07-25T11:08:12;26.40;94.70
53208;DHT22;39093;52.788;6.940;2022-07-25T11:10:51;26.50;95.20
53208;DHT22;39093;52.788;6.940;2022-07-25T11:13:19;26.50;95.60
53208;DHT22;39093;52.788;6.940;2022-07-25T11:15:46;26.50;94.20
53208;DHT22;39093;52.788;6.940;2022-07-25T11:18:14;26.50;93.90
53208;DHT22;39093;52.788;6.940;2022-07-25T11:20:41;26.50;93.20
53208;DHT22;39093;52.788;6.940;2022-07-25T11:23:08;26.30;93.80
53208;DHT22;39093;52.788;6.940;2022-07-25T11:25:35;26.10;93.80
53208;DHT22;39093;52.788;6.940;2022-07-25T11:28:02;25.90;94.40
53208;DHT22;39093;52.788;6.940;2022-07-25T11:30:29;25.70;94.80
53208;DHT22;39093;52.788;6.940;2022-07-25T11:32:59;25.50;95.50
53208;DHT22;39093;52.788;6.940;2022-07-25T11:35:29;25.40;96.60
53208;DHT22;39093;52.788;6.940;2022-07-25T11:37:58;25.30;97.50
53208;DHT22;39093;52.788;6.940;2022-07-25T11:40:27;25.30;97.40
53208;DHT22;39093;52.788;6.940;2022-07-25T11:42:56;25.20;97.70
53208;DHT22;39093;52.788;6.940;2022-07-25T11:45:26;25.20;97.70
53208;DHT22;39093;52.788;6.940;2022-07-25T11:48:11;25.10;97.50
53208;DHT22;39093;52.788;6.940;2022-07-25T11:50:43;25.10;98.30
53208;DHT22;39093;52.788;6.940;2022-07-25T11:53:12;25.30;98.90
53208;DHT22;39093;52.788;6.940;2022-07-25T11:55:41;25.40;98.70
53208;DHT22;39093;52.788;6.940;2022-07-25T11:58:10;25.60;98.40
53208;DHT22;39093;52.788;6.940;2022-07-25T12:00:41;25.60;97.90
53208;DHT22;39093;52.788;6.940;2022-07-25T12:03:10;25.60;98.20
53208;DHT22;39093;52.788;6.940;2022-07-25T12:05:45;25.60;98.30
53208;DHT22;39093;52.788;6.940;2022-07-25T12:08:14;25.50;98.40
53208;DHT22;39093;52.788;6.940;2022-07-25T12:10:42;25.50;98.70
53208;DHT22;39093;52.788;6.940;2022-07-25T12:13:21;25.50;99.40
53208;DHT22;39093;52.788;6.940;2022-07-25T12:15:49;25.50;99.70
53208;DHT22;39093;52.788;6.940;2022-07-25T12:18:17;25.50;99.50
53208;DHT22;39093;52.788;6.940;2022-07-25T12:20:44;25.40;99.30
53208;DHT22;39093;52.788;6.940;2022-07-25T12:23:12;25.40;99.50
53208;DHT22;39093;52.788;6.940;2022-07-25T12:25:41;25.50;99.00
53208;DHT22;39093;52.788;6.940;2022-07-25T12:28:08;25.40;98.70
53208;DHT22;39093;52.788;6.940;2022-07-25T12:30:37;25.40;98.90
53208;DHT22;39093;52.788;6.940;2022-07-25T12:33:05;25.30;98.80
53208;DHT22;39093;52.788;6.940;2022-07-25T12:35:33;25.30;99.30
53208;DHT22;39093;52.788;6.940;2022-07-25T12:38:03;25.40;99.70
53208;DHT22;39093;52.788;6.940;2022-07-25T12:40:30;25.50;99.50
53208;DHT22;39093;52.788;6.940;2022-07-25T12:42:57;25.60;99.40
53208;DHT22;39093;52.788;6.940;2022-07-25T12:45:25;25.70;99.20
53208;DHT22;39093;52.788;6.940;2022-07-25T12:47:52;25.70;98.40
53208;DHT22;39093;52.788;6.940;2022-07-25T12:50:19;25.80;96.60
53208;DHT22;39093;52.788;6.940;2022-07-25T12:52:46;25.70;96.50
53208;DHT22;39093;52.788;6.940;2022-07-25T12:55:16;25.50;96.70
53208;DHT22;39093;52.788;6.940;2022-07-25T12:57:43;25.40;97.10
53208;DHT22;39093;52.788;6.940;2022-07-25T13:00:13;25.30;97.70
53208;DHT22;39093;52.788;6.940;2022-07-25T13:02:43;25.30;97.70
53208;DHT22;39093;52.788;6.940;2022-07-25T13:05:10;25.30;98.40
53208;DHT22;39093;52.788;6.940;2022-07-25T13:07:37;25.40;98.00
53208;DHT22;39093;52.788;6.940;2022-07-25T13:10:06;25.40;97.40
53208;DHT22;39093;52.788;6.940;2022-07-25T13:12:33;25.40;97.30
53208;DHT22;39093;52.788;6.940;2022-07-25T13:15:00;25.40;97.50
53208;DHT22;39093;52.788;6.940;2022-07-25T13:17:27;25.40;96.80
53208;DHT22;39093;52.788;6.940;2022-07-25T13:19:55;25.30;96.70
53208;DHT22;39093;52.788;6.940;2022-07-25T13:22:23;25.20;96.70
53208;DHT22;39093;52.788;6.940;2022-07-25T13:24:51;25.10;97.00
53208;DHT22;39093;52.788;6.940;2022-07-25T13:27:19;25.00;96.60
53208;DHT22;39093;52.788;6.940;2022-07-25T13:29:46;24.90;97.00
53208;DHT22;39093;52.788;6.940;2022-07-25T13:32:14;24.80;96.90
53208;DHT22;39093;52.788;6.940;2022-07-25T13:34:42;24.90;97.10
53208;DHT22;39093;52.788;6.940;2022-07-25T13:37:08;25.10;96.60
53208;DHT22;39093;52.788;6.940;2022-07-25T13:39:35;25.30;96.60
53208;DHT22;39093;52.788;6.940;2022-07-25T13:42:04;25.40;96.50
53208;DHT22;39093;52.788;6.940;2022-07-25T13:44:31;25.50;96.50
53208;DHT22;39093;52.788;6.940;2022-07-25T13:46:58;25.50;96.20
53208;DHT22;39093;52.788;6.940;2022-07-25T13:49:25;25.70;95.00
53208;DHT22;39093;52.788;6.940;2022-07-25T13:51:52;25.80;95.40
53208;DHT22;39093;52.788;6.940;2022-07-25T13:54:19;26.10;95.20
53208;DHT22;39093;52.788;6.940;2022-07-25T13:56:46;26.20;95.20
53208;DHT22;39093;52.788;6.940;2022-07-25T13:59:13;26.40;94.70
53208;DHT22;39093;52.788;6.940;2022-07-25T14:01:47;26.30;94.20
53208;DHT22;39093;52.788;6.940;2022-07-25T14:04:14;26.00;94.50
53208;DHT22;39093;52.788;6.940;2022-07-25T14:06:41;25.70;94.80
53208;DHT22;39093;52.788;6.940;2022-07-25T14:09:08;25.30;94.80
53208;DHT22;39093;52.788;6.940;2022-07-25T14:11:36;25.00;95.00
53208;DHT22;39093;52.788;6.940;2022-07-25T14:14:03;24.70;95.20
53208;DHT22;39093;52.788;6.940;2022-07-25T14:16:30;24.50;95.60
53208;DHT22;39093;52.788;6.940;2022-07-25T14:18:57;24.30;95.90
53208;DHT22;39093;52.788;6.940;2022-07-25T14:21:25;24.10;96.20
53208;DHT22;39093;52.788;6.940;2022-07-25T14:23:52;24.10;96.10
53208;DHT22;39093;52.788;6.940;2022-07-25T14:26:19;24.00;96.20
53208;DHT22;39093;52.788;6.940;2022-07-25T14:28:46;24.00;96.10
53208;DHT22;39093;52.788;6.940;2022-07-25T14:31:13;23.90;96.20
53208;DHT22;39093;52.788;6.940;2022-07-25T14:33:40;23.80;96.20
53208;DHT22;39093;52.788;6.940;2022-07-25T14:36:08;23.70;96.30
53208;DHT22;39093;52.788;6.940;2022-07-25T14:38:35;23.70;96.50
53208;DHT22;39093;52.788;6.940;2022-07-25T14:41:04;23.70;97.10
53208;DHT22;39093;52.788;6.940;2022-07-25T14:43:38;23.60;97.60
53208;DHT22;39093;52.788;6.940;2022-07-25T14:46:05;23.70;97.40
53208;DHT22;39093;52.788;6.940;2022-07-25T14:48:37;23.80;97.60
53208;DHT22;39093;52.788;6.940;2022-07-25T14:51:05;24.20;97.30
53208;DHT22;39093;52.788;6.940;2022-07-25T14:53:33;24.90;96.80
53208;DHT22;39093;52.788;6.940;2022-07-25T14:56:02;26.00;96.80
53208;DHT22;39093;52.788;6.940;2022-07-25T14:58:29;26.90;96.00
53208;DHT22;39093;52.788;6.940;2022-07-25T15:00:56;27.60;94.80
53208;DHT22;39093;52.788;6.940;2022-07-25T15:03:23;27.60;93.80
53208;DHT22;39093;52.788;6.940;2022-07-25T15:05:50;27.10;93.30
53208;DHT22;39093;52.788;6.940;2022-07-25T15:08:17;26.60;93.80
53208;DHT22;39093;52.788;6.940;2022-07-25T15:10:44;26.10;93.90
53208;DHT22;39093;52.788;6.940;2022-07-25T15:13:11;25.80;94.30
53208;DHT22;39093;52.788;6.940;2022-07-25T15:15:59;25.50;95.10
53208;DHT22;39093;52.788;6.940;2022-07-25T15:18:26;26.30;94.20
53208;DHT22;39093;52.788;6.940;2022-07-25T15:20:53;27.00;93.60
53208;DHT22;39093;52.788;6.940;2022-07-25T15:23:21;27.80;92.40
53208;DHT22;39093;52.788;6.940;2022-07-25T15:25:51;28.20;92.20
53208;DHT22;39093;52.788;6.940;2022-07-25T15:28:36;28.50;91.90
53208;DHT22;39093;52.788;6.940;2022-07-25T15:31:04;28.50;91.70
53208;DHT22;39093;52.788;6.940;2022-07-25T15:33:31;28.00;91.50
53208;DHT22;39093;52.788;6.940;2022-07-25T15:35:59;28.00;92.00
53208;DHT22;39093;52.788;6.940;2022-07-25T15:38:26;28.30;91.30
53208;DHT22;39093;52.788;6.940;2022-07-25T15:40:54;28.30;91.20
53208;DHT22;39093;52.788;6.940;2022-07-25T15:43:21;28.60;91.00
53208;DHT22;39093;52.788;6.940;2022-07-25T15:45:48;28.60;88.40